sensor_id;sensor_type;location;lat;lon;timestamp;temperature;humidity
18225;DHT22;9237;48.590;8.854;2024-02-23T00:02:12;4.70;99.90
18225;DHT22;9237;48.590;8.854;2024-02-23T00:04:39;4.70;99.90
18225;DHT22;9237;48.590;8.854;2024-02-23T00:07:08;4.80;99.90
18225;DHT22;9237;48.590;8.854;2024-02-23T00:09:36;4.80;99.90
18225;DHT22;9237;48.590;8.854;2024-02-23T00:12:04;4.70;99.90
18225;DHT22;9237;48.590;8.854;2024-02-23T00:14:31;4.70;99.90
18225;DHT22;9237;48.590;8.854;2024-02-23T00:16:58;4.70;99.90
18225;DHT22;9237;48.590;8.854;2024-02-23T00:19:26;4.80;99.90
18225;DHT22;9237;48.590;8.854;2024-02-23T00:21:53;4.80;99.90
18225;DHT22;9237;48.590;8.854;2024-02-23T00:24:21;4.80;99.90
18225;DHT22;9237;48.590;8.854;2024-02-23T00:26:48;4.70;99.90
18225;DHT22;9237;48.590;8.854;2024-02-23T00:29:17;4.70;99.90
18225;DHT22;9237;48.590;8.854;2024-02-23T00:31:43;4.70;99.90
18225;DHT22;9237;48.590;8.854;2024-02-23T00:34:11;4.70;99.90
18225;DHT22;9237;48.590;8.854;2024-02-23T00:36:39;4.60;99.90
18225;DHT22;9237;48.590;8.854;2024-02-23T00:39:06;4.60;99.90
18225;DHT22;9237;48.590;8.854;2024-02-23T00:41:34;4.60;99.90
18225;DHT22;9237;48.590;8.854;2024-02-23T00:44:01;4.70;99.90
18225;DHT22;9237;48.590;8.854;2024-02-23T00:46:28;4.70;99.90
18225;DHT22;9237;48.590;8.854;2024-02-23T00:48:55;4.70;99.90
18225;DHT22;9237;48.590;8.854;2024-02-23T00:51:22;4.70;99.90
18225;DHT22;9237;48.590;8.854;2024-02-23T00:53:49;4.70;99.90
18225;DHT22;9237;48.590;8.854;2024-02-23T00:56:16;4.80;99.90
18225;DHT22;9237;48.590;8.854;2024-02-23T00:58:44;4.80;99.90
18225;DHT22;9237;48.590;8.854;2024-02-23T01:01:10;4.80;99.90
18225;DHT22;9237;48.590;8.854;2024-02-23T01:03:37;4.70;99.90
18225;DHT22;9237;48.590;8.854;2024-02-23T01:06:04;4.60;99.90
18225;DHT22;9237;48.590;8.854;2024-02-23T01:08:31;4.70;99.90
18225;DHT22;9237;48.590;8.854;2024-02-23T01:10:58;4.70;99.90
18225;DHT22;9237;48.590;8.854;2024-02-23T01:13:24;4.70;99.90
18225;DHT22;9237;48.590;8.854;2024-02-23T01:15:52;4.70;99.90
18225;DHT22;9237;48.590;8.854;2024-02-23T01:18:20;4.70;99.90
18225;DHT22;9237;48.590;8.854;2024-02-23T01:20:47;4.70;99.90
18225;DHT22;9237;48.590;8.854;2024-02-23T01:23:13;4.70;99.90
18225;DHT22;9237;48.590;8.854;2024-02-23T01:25:40;4.70;99.90
18225;DHT22;9237;48.590;8.854;2024-02-23T01:28:07;4.70;99.90
18225;DHT22;9237;48.590;8.854;2024-02-23T01:30:34;4.60;99.90
18225;DHT22;9237;48.590;8.854;2024-02-23T01:33:02;4.70;99.90
18225;DHT22;9237;48.590;8.854;2024-02-23T01:35:29;4.80;99.90
18225;DHT22;9237;48.590;8.854;2024-02-23T01:37:56;4.70;99.90
18225;DHT22;9237;48.590;8.854;2024-02-23T01:40:22;4.70;99.90
18225;DHT22;9237;48.590;8.854;2024-02-23T01:42:49;4.70;99.90
18225;DHT22;9237;48.590;8.854;2024-02-23T01:45:26;4.60;99.90
18225;DHT22;9237;48.590;8.854;2024-02-23T01:47:53;4.50;99.90
18225;DHT22;9237;48.590;8.854;2024-02-23T01:50:21;4.50;99.90
18225;DHT22;9237;48.590;8.854;2024-02-23T01:52:48;4.50;99.90
18225;DHT22;9237;48.590;8.854;2024-02-23T01:55:17;4.40;99.90
18225;DHT22;9237;48.590;8.854;2024-02-23T01:57:45;4.50;99.90
18225;DHT22;9237;48.590;8.854;2024-02-23T02:00:16;4.40;99.90
18225;DHT22;9237;48.590;8.854;2024-02-23T02:02:43;4.40;99.90
18225;DHT22;9237;48.590;8.854;2024-02-23T02:05:10;4.30;99.90
18225;DHT22;9237;48.590;8.854;2024-02-23T02:07:40;4.30;99.90
18225;DHT22;9237;48.590;8.854;2024-02-23T02:10:08;4.30;99.90
18225;DHT22;9237;48.590;8.854;2024-02-23T02:12:36;4.40;99.90
18225;DHT22;9237;48.590;8.854;2024-02-23T02:15:04;4.50;99.90
18225;DHT22;9237;48.590;8.854;2024-02-23T02:17:31;4.60;99.90
18225;DHT22;9237;48.590;8.854;2024-02-23T02:19:58;4.60;99.90
18225;DHT22;9237;48.590;8.854;2024-02-23T02:22:25;4.70;99.90
18225;DHT22;9237;48.590;8.854;2024-02-23T02:24:53;4.80;99.90
18225;DHT22;9237;48.590;8.854;2024-02-23T02:27:20;4.90;99.90
18225;DHT22;9237;48.590;8.854;2024-02-23T02:29:50;5.00;99.90
18225;DHT22;9237;48.590;8.854;2024-02-23T02:32:17;5.00;99.90
18225;DHT22;9237;48.590;8.854;2024-02-23T02:34:43;4.90;99.90
18225;DHT22;9237;48.590;8.854;2024-02-23T02:37:10;4.90;99.90
18225;DHT22;9237;48.590;8.854;2024-02-23T02:39:37;4.90;99.90
18225;DHT22;9237;48.590;8.854;2024-02-23T02:42:05;4.80;99.90
18225;DHT22;9237;48.590;8.854;2024-02-23T02:44:32;4.80;99.90
18225;DHT22;9237;48.590;8.854;2024-02-23T02:47:00;4.80;99.90
18225;DHT22;9237;48.590;8.854;2024-02-23T02:49:27;4.80;99.90
18225;DHT22;9237;48.590;8.854;2024-02-23T02:51:54;4.70;99.90
18225;DHT22;9237;48.590;8.854;2024-02-23T02:54:21;4.70;99.90
18225;DHT22;9237;48.590;8.854;2024-02-23T02:56:48;4.70;99.90
18225;DHT22;9237;48.590;8.854;2024-02-23T02:59:17;4.70;99.90
18225;DHT22;9237;48.590;8.854;2024-02-23T03:01:44;4.70;99.90
18225;DHT22;9237;48.590;8.854;2024-02-23T03:04:11;4.60;99.90
18225;DHT22;9237;48.590;8.854;2024-02-23T03:06:38;4.60;99.90
18225;DHT22;9237;48.590;8.854;2024-02-23T03:09:04;4.60;99.90
18225;DHT22;9237;48.590;8.854;2024-02-23T03:11:32;4.60;99.90
18225;DHT22;9237;48.590;8.854;2024-02-23T03:13:59;4.60;99.90
18225;DHT22;9237;48.590;8.854;2024-02-23T03:16:27;4.60;99.90
18225;DHT22;9237;48.590;8.854;2024-02-23T03:18:55;4.60;99.90
18225;DHT22;9237;48.590;8.854;2024-02-23T03:21:21;4.60;99.90
18225;DHT22;9237;48.590;8.854;2024-02-23T03:23:48;4.50;99.90
18225;DHT22;9237;48.590;8.854;2024-02-23T03:26:15;4.50;99.90
18225;DHT22;9237;48.590;8.854;2024-02-23T03:28:42;4.50;99.90
18225;DHT22;9237;48.590;8.854;2024-02-23T03:31:09;4.40;99.90
18225;DHT22;9237;48.590;8.854;2024-02-23T03:33:37;4.40;99.90
18225;DHT22;9237;48.590;8.854;2024-02-23T03:36:04;4.30;99.90
18225;DHT22;9237;48.590;8.854;2024-02-23T03:38:31;4.30;99.90
18225;DHT22;9237;48.590;8.854;2024-02-23T03:40:59;4.30;99.90
18225;DHT22;9237;48.590;8.854;2024-02-23T03:43:26;4.20;99.90
18225;DHT22;9237;48.590;8.854;2024-02-23T03:45:53;4.10;99.90
18225;DHT22;9237;48.590;8.854;2024-02-23T03:48:20;4.00;99.90
18225;DHT22;9237;48.590;8.854;2024-02-23T03:50:48;3.90;99.90
18225;DHT22;9237;48.590;8.854;2024-02-23T03:53:15;3.90;99.90
18225;DHT22;9237;48.590;8.854;2024-02-23T03:55:42;3.90;99.90
18225;DHT22;9237;48.590;8.854;2024-02-23T03:58:08;3.80;99.90
18225;DHT22;9237;48.590;8.854;2024-02-23T04:00:35;3.70;99.90
18225;DHT22;9237;48.590;8.854;2024-02-23T04:03:02;3.60;99.90
18225;DHT22;9237;48.590;8.854;2024-02-23T04:05:29;3.60;99.90
18225;DHT22;9237;48.590;8.854;2024-02-23T04:07:57;3.50;99.90
18225;DHT22;9237;48.590;8.854;2024-02-23T04:10:24;3.50;99.90
18225;DHT22;9237;48.590;8.854;2024-02-23T04:12:50;3.50;99.90
18225;DHT22;9237;48.590;8.854;2024-02-23T04:15:17;3.40;99.90
18225;DHT22;9237;48.590;8.854;2024-02-23T04:17:45;3.40;99.90
18225;DHT22;9237;48.590;8.854;2024-02-23T04:20:12;3.40;99.90
18225;DHT22;9237;48.590;8.854;2024-02-23T04:22:39;3.30;99.90
18225;DHT22;9237;48.590;8.854;2024-02-23T04:25:07;3.30;99.90
18225;DHT22;9237;48.590;8.854;2024-02-23T04:27:34;3.30;99.90
18225;DHT22;9237;48.590;8.854;2024-02-23T04:30:01;3.30;99.90
18225;DHT22;9237;48.590;8.854;2024-02-23T04:32:28;3.30;99.90
18225;DHT22;9237;48.590;8.854;2024-02-23T04:34:55;3.20;99.90
18225;DHT22;9237;48.590;8.854;2024-02-23T04:37:22;3.20;99.90
18225;DHT22;9237;48.590;8.854;2024-02-23T04:39:49;3.20;99.90
18225;DHT22;9237;48.590;8.854;2024-02-23T04:42:17;3.20;99.90
18225;DHT22;9237;48.590;8.854;2024-02-23T04:44:44;3.20;99.90
18225;DHT22;9237;48.590;8.854;2024-02-23T04:47:11;3.10;99.90
18225;DHT22;9237;48.590;8.854;2024-02-23T04:49:38;3.10;99.90
18225;DHT22;9237;48.590;8.854;2024-02-23T04:52:05;3.10;99.90
18225;DHT22;9237;48.590;8.854;2024-02-23T04:54:32;3.10;99.90
18225;DHT22;9237;48.590;8.854;2024-02-23T04:56:59;3.10;99.90
18225;DHT22;9237;48.590;8.854;2024-02-23T04:59:27;3.10;99.90
18225;DHT22;9237;48.590;8.854;2024-02-23T05:01:55;3.10;99.90
18225;DHT22;9237;48.590;8.854;2024-02-23T05:04:22;3.10;99.90
18225;DHT22;9237;48.590;8.854;2024-02-23T05:06:49;3.00;99.90
18225;DHT22;9237;48.590;8.854;2024-02-23T05:09:15;2.90;99.90
18225;DHT22;9237;48.590;8.854;2024-02-23T05:11:42;2.80;99.90
18225;DHT22;9237;48.590;8.854;2024-02-23T05:14:09;2.70;99.90
18225;DHT22;9237;48.590;8.854;2024-02-23T05:16:37;2.70;99.90
18225;DHT22;9237;48.590;8.854;2024-02-23T05:19:04;2.60;99.90
18225;DHT22;9237;48.590;8.854;2024-02-23T05:21:30;2.50;99.90
18225;DHT22;9237;48.590;8.854;2024-02-23T05:23:57;2.50;99.90
18225;DHT22;9237;48.590;8.854;2024-02-23T05:26:24;2.40;99.90
18225;DHT22;9237;48.590;8.854;2024-02-23T05:28:51;2.40;99.90
18225;DHT22;9237;48.590;8.854;2024-02-23T05:31:17;2.40;99.90
18225;DHT22;9237;48.590;8.854;2024-02-23T05:33:46;2.30;99.90
18225;DHT22;9237;48.590;8.854;2024-02-23T05:36:13;2.20;99.90
18225;DHT22;9237;48.590;8.854;2024-02-23T05:38:41;2.20;99.90
18225;DHT22;9237;48.590;8.854;2024-02-23T05:41:12;2.10;99.90
18225;DHT22;9237;48.590;8.854;2024-02-23T05:43:38;2.00;99.90
18225;DHT22;9237;48.590;8.854;2024-02-23T05:46:05;2.00;99.90
18225;DHT22;9237;48.590;8.854;2024-02-23T05:48:32;1.90;99.90
18225;DHT22;9237;48.590;8.854;2024-02-23T05:51:00;1.90;99.90
18225;DHT22;9237;48.590;8.854;2024-02-23T05:53:27;1.90;99.90
18225;DHT22;9237;48.590;8.854;2024-02-23T05:55:58;1.90;99.90
18225;DHT22;9237;48.590;8.854;2024-02-23T05:58:24;2.00;99.90
18225;DHT22;9237;48.590;8.854;2024-02-23T06:00:51;2.00;99.90
18225;DHT22;9237;48.590;8.854;2024-02-23T06:03:18;2.10;99.90
18225;DHT22;9237;48.590;8.854;2024-02-23T06:05:46;2.10;99.90
18225;DHT22;9237;48.590;8.854;2024-02-23T06:08:14;2.30;99.90
18225;DHT22;9237;48.590;8.854;2024-02-23T06:10:40;2.30;99.90
18225;DHT22;9237;48.590;8.854;2024-02-23T06:13:08;2.40;99.90
18225;DHT22;9237;48.590;8.854;2024-02-23T06:15:35;2.40;99.90
18225;DHT22;9237;48.590;8.854;2024-02-23T06:18:02;2.40;99.90
18225;DHT22;9237;48.590;8.854;2024-02-23T06:20:28;2.30;99.90
18225;DHT22;9237;48.590;8.854;2024-02-23T06:22:55;2.30;99.90
18225;DHT22;9237;48.590;8.854;2024-02-23T06:25:23;2.20;99.90
18225;DHT22;9237;48.590;8.854;2024-02-23T06:27:50;2.20;99.90
18225;DHT22;9237;48.590;8.854;2024-02-23T06:30:17;2.10;99.90
18225;DHT22;9237;48.590;8.854;2024-02-23T06:32:44;2.10;99.90
18225;DHT22;9237;48.590;8.854;2024-02-23T06:35:11;2.10;99.90
18225;DHT22;9237;48.590;8.854;2024-02-23T06:37:38;2.00;99.90
18225;DHT22;9237;48.590;8.854;2024-02-23T06:40:05;2.00;99.90
18225;DHT22;9237;48.590;8.854;2024-02-23T06:42:34;2.00;99.90
18225;DHT22;9237;48.590;8.854;2024-02-23T06:45:00;2.10;99.90
18225;DHT22;9237;48.590;8.854;2024-02-23T06:47:27;2.10;99.90
18225;DHT22;9237;48.590;8.854;2024-02-23T06:49:54;2.20;99.90
18225;DHT22;9237;48.590;8.854;2024-02-23T06:52:21;2.20;99.90
18225;DHT22;9237;48.590;8.854;2024-02-23T06:54:48;2.20;99.90
18225;DHT22;9237;48.590;8.854;2024-02-23T06:57:15;2.30;99.90
18225;DHT22;9237;48.590;8.854;2024-02-23T06:59:43;2.30;99.90
18225;DHT22;9237;48.590;8.854;2024-02-23T07:02:10;2.40;99.90
18225;DHT22;9237;48.590;8.854;2024-02-23T07:04:37;2.50;99.90
18225;DHT22;9237;48.590;8.854;2024-02-23T07:07:03;2.60;99.90
18225;DHT22;9237;48.590;8.854;2024-02-23T07:09:32;2.70;99.90
18225;DHT22;9237;48.590;8.854;2024-02-23T07:11:59;2.80;99.90
18225;DHT22;9237;48.590;8.854;2024-02-23T07:14:26;3.00;99.90
18225;DHT22;9237;48.590;8.854;2024-02-23T07:16:54;3.10;99.90
18225;DHT22;9237;48.590;8.854;2024-02-23T07:19:21;3.10;99.90
18225;DHT22;9237;48.590;8.854;2024-02-23T07:21:48;3.10;99.90
18225;DHT22;9237;48.590;8.854;2024-02-23T07:24:14;3.20;99.90
18225;DHT22;9237;48.590;8.854;2024-02-23T07:26:41;3.20;99.90
18225;DHT22;9237;48.590;8.854;2024-02-23T07:29:08;3.30;99.90
18225;DHT22;9237;48.590;8.854;2024-02-23T07:31:35;3.30;99.90
18225;DHT22;9237;48.590;8.854;2024-02-23T07:34:03;3.30;99.90
18225;DHT22;9237;48.590;8.854;2024-02-23T07:36:30;3.40;99.90
18225;DHT22;9237;48.590;8.854;2024-02-23T07:38:57;3.40;99.90
18225;DHT22;9237;48.590;8.854;2024-02-23T07:41:23;3.50;99.90
18225;DHT22;9237;48.590;8.854;2024-02-23T07:43:50;3.60;99.90
18225;DHT22;9237;48.590;8.854;2024-02-23T07:46:17;3.60;99.90
18225;DHT22;9237;48.590;8.854;2024-02-23T07:48:45;3.60;99.90
18225;DHT22;9237;48.590;8.854;2024-02-23T07:51:15;3.70;99.90
18225;DHT22;9237;48.590;8.854;2024-02-23T07:53:41;3.60;99.90
18225;DHT22;9237;48.590;8.854;2024-02-23T07:56:08;3.60;99.90
18225;DHT22;9237;48.590;8.854;2024-02-23T07:58:35;3.50;99.90
18225;DHT22;9237;48.590;8.854;2024-02-23T08:01:02;3.60;99.90
18225;DHT22;9237;48.590;8.854;2024-02-23T08:03:29;3.60;99.90
18225;DHT22;9237;48.590;8.854;2024-02-23T08:05:57;3.60;99.90
18225;DHT22;9237;48.590;8.854;2024-02-23T08:08:25;3.60;99.90
18225;DHT22;9237;48.590;8.854;2024-02-23T08:10:53;3.60;99.90
18225;DHT22;9237;48.590;8.854;2024-02-23T08:13:20;3.60;99.90
18225;DHT22;9237;48.590;8.854;2024-02-23T08:15:46;3.70;99.90
18225;DHT22;9237;48.590;8.854;2024-02-23T08:18:13;3.90;99.90
18225;DHT22;9237;48.590;8.854;2024-02-23T08:20:40;4.10;99.90
18225;DHT22;9237;48.590;8.854;2024-02-23T08:23:07;4.20;99.90
18225;DHT22;9237;48.590;8.854;2024-02-23T08:25:36;4.30;99.90
18225;DHT22;9237;48.590;8.854;2024-02-23T08:28:03;4.30;99.90
18225;DHT22;9237;48.590;8.854;2024-02-23T08:30:30;4.20;99.90
18225;DHT22;9237;48.590;8.854;2024-02-23T08:32:56;4.20;99.90
18225;DHT22;9237;48.590;8.854;2024-02-23T08:35:23;4.10;99.90
18225;DHT22;9237;48.590;8.854;2024-02-23T08:37:50;4.00;99.90
18225;DHT22;9237;48.590;8.854;2024-02-23T08:40:17;4.10;99.90
18225;DHT22;9237;48.590;8.854;2024-02-23T08:42:45;4.20;99.90
18225;DHT22;9237;48.590;8.854;2024-02-23T08:45:12;4.30;99.90
18225;DHT22;9237;48.590;8.854;2024-02-23T08:47:39;4.40;99.90
18225;DHT22;9237;48.590;8.854;2024-02-23T08:50:07;4.50;99.90
18225;DHT22;9237;48.590;8.854;2024-02-23T08:52:33;4.50;99.90
18225;DHT22;9237;48.590;8.854;2024-02-23T08:55:00;4.50;99.90
18225;DHT22;9237;48.590;8.854;2024-02-23T08:57:27;4.50;99.90
18225;DHT22;9237;48.590;8.854;2024-02-23T08:59:55;4.60;99.90
18225;DHT22;9237;48.590;8.854;2024-02-23T09:02:23;4.80;99.90
18225;DHT22;9237;48.590;8.854;2024-02-23T09:04:50;5.00;99.90
18225;DHT22;9237;48.590;8.854;2024-02-23T09:07:17;5.30;99.90
18225;DHT22;9237;48.590;8.854;2024-02-23T09:09:45;5.50;99.90
18225;DHT22;9237;48.590;8.854;2024-02-23T09:12:12;5.70;99.90
18225;DHT22;9237;48.590;8.854;2024-02-23T09:14:40;6.00;99.90
18225;DHT22;9237;48.590;8.854;2024-02-23T09:17:08;6.10;99.90
18225;DHT22;9237;48.590;8.854;2024-02-23T09:19:35;5.70;99.90
18225;DHT22;9237;48.590;8.854;2024-02-23T09:22:02;5.60;99.90
18225;DHT22;9237;48.590;8.854;2024-02-23T09:24:29;5.70;99.90
18225;DHT22;9237;48.590;8.854;2024-02-23T09:26:56;5.60;99.90
18225;DHT22;9237;48.590;8.854;2024-02-23T09:29:22;5.60;99.90
18225;DHT22;9237;48.590;8.854;2024-02-23T09:31:49;5.70;99.90
18225;DHT22;9237;48.590;8.854;2024-02-23T09:34:17;5.80;99.90
18225;DHT22;9237;48.590;8.854;2024-02-23T09:36:44;5.60;99.90
18225;DHT22;9237;48.590;8.854;2024-02-23T09:39:11;5.60;99.90
18225;DHT22;9237;48.590;8.854;2024-02-23T09:41:39;5.60;99.90
18225;DHT22;9237;48.590;8.854;2024-02-23T09:44:07;5.60;99.90
18225;DHT22;9237;48.590;8.854;2024-02-23T09:46:36;5.70;99.90
18225;DHT22;9237;48.590;8.854;2024-02-23T09:49:04;5.70;99.90
18225;DHT22;9237;48.590;8.854;2024-02-23T09:51:33;5.80;99.90
18225;DHT22;9237;48.590;8.854;2024-02-23T09:54:01;5.80;99.90
18225;DHT22;9237;48.590;8.854;2024-02-23T09:56:29;5.60;99.90
18225;DHT22;9237;48.590;8.854;2024-02-23T09:58:57;5.70;99.90
18225;DHT22;9237;48.590;8.854;2024-02-23T10:01:28;5.60;99.90
18225;DHT22;9237;48.590;8.854;2024-02-23T10:03:57;5.60;99.90
18225;DHT22;9237;48.590;8.854;2024-02-23T10:06:24;5.60;99.90
18225;DHT22;9237;48.590;8.854;2024-02-23T10:08:52;5.50;99.90
18225;DHT22;9237;48.590;8.854;2024-02-23T10:11:20;5.60;99.90
18225;DHT22;9237;48.590;8.854;2024-02-23T10:13:47;5.60;99.90
18225;DHT22;9237;48.590;8.854;2024-02-23T10:16:16;5.70;99.90
18225;DHT22;9237;48.590;8.854;2024-02-23T10:18:42;5.70;99.90
18225;DHT22;9237;48.590;8.854;2024-02-23T10:21:09;5.70;99.90
18225;DHT22;9237;48.590;8.854;2024-02-23T10:23:36;5.70;99.90
18225;DHT22;9237;48.590;8.854;2024-02-23T10:26:06;5.70;99.90
18225;DHT22;9237;48.590;8.854;2024-02-23T10:28:34;5.80;99.90
18225;DHT22;9237;48.590;8.854;2024-02-23T10:31:01;5.90;99.90
18225;DHT22;9237;48.590;8.854;2024-02-23T10:33:28;5.90;99.90
18225;DHT22;9237;48.590;8.854;2024-02-23T10:35:57;6.10;99.90
18225;DHT22;9237;48.590;8.854;2024-02-23T10:38:24;6.20;99.90
18225;DHT22;9237;48.590;8.854;2024-02-23T10:40:54;6.40;99.90
18225;DHT22;9237;48.590;8.854;2024-02-23T10:43:29;6.50;99.90
18225;DHT22;9237;48.590;8.854;2024-02-23T10:45:57;6.70;99.90
18225;DHT22;9237;48.590;8.854;2024-02-23T10:48:26;7.00;99.90
18225;DHT22;9237;48.590;8.854;2024-02-23T10:50:54;7.00;99.90
18225;DHT22;9237;48.590;8.854;2024-02-23T10:53:22;6.90;99.90
18225;DHT22;9237;48.590;8.854;2024-02-23T10:55:52;6.90;99.90
18225;DHT22;9237;48.590;8.854;2024-02-23T10:58:23;6.90;99.90
18225;DHT22;9237;48.590;8.854;2024-02-23T11:00:50;6.90;99.90
18225;DHT22;9237;48.590;8.854;2024-02-23T11:03:18;6.90;99.90
18225;DHT22;9237;48.590;8.854;2024-02-23T11:05:47;6.90;99.90
18225;DHT22;9237;48.590;8.854;2024-02-23T11:08:17;7.00;99.90
18225;DHT22;9237;48.590;8.854;2024-02-23T11:10:49;7.00;99.90
18225;DHT22;9237;48.590;8.854;2024-02-23T11:13:16;7.00;99.90
18225;DHT22;9237;48.590;8.854;2024-02-23T11:15:44;7.00;99.90
18225;DHT22;9237;48.590;8.854;2024-02-23T11:18:23;7.00;99.90
18225;DHT22;9237;48.590;8.854;2024-02-23T11:20:54;7.10;99.90
18225;DHT22;9237;48.590;8.854;2024-02-23T11:23:22;7.00;99.90
18225;DHT22;9237;48.590;8.854;2024-02-23T11:26:09;7.00;99.90
18225;DHT22;9237;48.590;8.854;2024-02-23T11:28:42;7.20;99.90
18225;DHT22;9237;48.590;8.854;2024-02-23T11:31:13;7.30;99.90
18225;DHT22;9237;48.590;8.854;2024-02-23T11:33:40;7.40;99.90
18225;DHT22;9237;48.590;8.854;2024-02-23T11:36:22;7.60;99.90
18225;DHT22;9237;48.590;8.854;2024-02-23T11:38:52;7.60;99.90
18225;DHT22;9237;48.590;8.854;2024-02-23T11:41:20;7.80;99.90
18225;DHT22;9237;48.590;8.854;2024-02-23T11:43:47;8.00;99.90
18225;DHT22;9237;48.590;8.854;2024-02-23T11:46:16;7.80;99.90
18225;DHT22;9237;48.590;8.854;2024-02-23T11:48:43;7.60;99.90
18225;DHT22;9237;48.590;8.854;2024-02-23T11:51:09;7.60;99.90
18225;DHT22;9237;48.590;8.854;2024-02-23T11:53:37;7.70;99.90
18225;DHT22;9237;48.590;8.854;2024-02-23T11:56:04;7.90;99.90
18225;DHT22;9237;48.590;8.854;2024-02-23T11:58:32;8.10;99.90
18225;DHT22;9237;48.590;8.854;2024-02-23T12:00:58;8.00;99.90
18225;DHT22;9237;48.590;8.854;2024-02-23T12:03:29;7.90;99.90
18225;DHT22;9237;48.590;8.854;2024-02-23T12:05:57;7.90;99.90
18225;DHT22;9237;48.590;8.854;2024-02-23T12:08:24;8.10;99.90
18225;DHT22;9237;48.590;8.854;2024-02-23T12:10:52;8.00;99.90
18225;DHT22;9237;48.590;8.854;2024-02-23T12:13:18;7.90;99.90
18225;DHT22;9237;48.590;8.854;2024-02-23T12:15:45;7.80;99.90
18225;DHT22;9237;48.590;8.854;2024-02-23T12:18:13;8.00;99.90
18225;DHT22;9237;48.590;8.854;2024-02-23T12:20:41;8.20;99.90
18225;DHT22;9237;48.590;8.854;2024-02-23T12:23:08;8.10;99.90
18225;DHT22;9237;48.590;8.854;2024-02-23T12:25:36;8.10;99.90
18225;DHT22;9237;48.590;8.854;2024-02-23T12:28:03;8.10;99.90
18225;DHT22;9237;48.590;8.854;2024-02-23T12:30:30;8.00;99.90
18225;DHT22;9237;48.590;8.854;2024-02-23T12:33:04;7.90;99.90
18225;DHT22;9237;48.590;8.854;2024-02-23T12:35:31;7.70;99.90
18225;DHT22;9237;48.590;8.854;2024-02-23T12:37:59;7.60;99.90
18225;DHT22;9237;48.590;8.854;2024-02-23T12:40:25;7.60;99.90
18225;DHT22;9237;48.590;8.854;2024-02-23T12:42:52;7.60;99.90
18225;DHT22;9237;48.590;8.854;2024-02-23T12:45:19;7.60;99.90
18225;DHT22;9237;48.590;8.854;2024-02-23T12:47:46;7.50;99.90
18225;DHT22;9237;48.590;8.854;2024-02-23T12:50:13;7.40;99.90
18225;DHT22;9237;48.590;8.854;2024-02-23T12:52:40;7.40;99.90
18225;DHT22;9237;48.590;8.854;2024-02-23T12:55:08;7.40;99.90
18225;DHT22;9237;48.590;8.854;2024-02-23T12:57:35;7.60;99.90
18225;DHT22;9237;48.590;8.854;2024-02-23T13:00:02;7.70;99.90
18225;DHT22;9237;48.590;8.854;2024-02-23T13:02:30;7.70;99.90
18225;DHT22;9237;48.590;8.854;2024-02-23T13:04:57;7.60;99.90
18225;DHT22;9237;48.590;8.854;2024-02-23T13:07:24;7.70;99.90
18225;DHT22;9237;48.590;8.854;2024-02-23T13:09:51;7.70;99.90
18225;DHT22;9237;48.590;8.854;2024-02-23T13:12:19;7.70;99.90
18225;DHT22;9237;48.590;8.854;2024-02-23T13:14:46;7.90;99.90
18225;DHT22;9237;48.590;8.854;2024-02-23T13:17:12;7.80;99.90
18225;DHT22;9237;48.590;8.854;2024-02-23T13:19:39;7.80;99.90
18225;DHT22;9237;48.590;8.854;2024-02-23T13:22:07;7.80;99.90
18225;DHT22;9237;48.590;8.854;2024-02-23T13:24:34;7.80;99.90
18225;DHT22;9237;48.590;8.854;2024-02-23T13:27:00;7.90;99.90
18225;DHT22;9237;48.590;8.854;2024-02-23T13:29:28;8.00;99.90
18225;DHT22;9237;48.590;8.854;2024-02-23T13:31:55;8.20;99.90
18225;DHT22;9237;48.590;8.854;2024-02-23T13:34:22;8.40;99.90
18225;DHT22;9237;48.590;8.854;2024-02-23T13:36:49;8.40;99.90
18225;DHT22;9237;48.590;8.854;2024-02-23T13:39:17;8.50;99.90
18225;DHT22;9237;48.590;8.854;2024-02-23T13:41:44;8.50;99.90
18225;DHT22;9237;48.590;8.854;2024-02-23T13:44:11;8.50;99.90
18225;DHT22;9237;48.590;8.854;2024-02-23T13:46:39;8.50;99.90
18225;DHT22;9237;48.590;8.854;2024-02-23T13:49:06;8.60;99.90
18225;DHT22;9237;48.590;8.854;2024-02-23T13:51:35;8.50;99.90
18225;DHT22;9237;48.590;8.854;2024-02-23T13:54:02;8.60;99.90
18225;DHT22;9237;48.590;8.854;2024-02-23T13:56:29;8.70;99.90
18225;DHT22;9237;48.590;8.854;2024-02-23T13:58:56;8.70;99.90
18225;DHT22;9237;48.590;8.854;2024-02-23T14:01:23;8.80;99.90
18225;DHT22;9237;48.590;8.854;2024-02-23T14:03:51;8.80;99.90
18225;DHT22;9237;48.590;8.854;2024-02-23T14:06:18;8.70;99.90
18225;DHT22;9237;48.590;8.854;2024-02-23T14:08:45;8.70;99.90
18225;DHT22;9237;48.590;8.854;2024-02-23T14:11:13;8.60;99.90
18225;DHT22;9237;48.590;8.854;2024-02-23T14:13:40;8.50;99.90
18225;DHT22;9237;48.590;8.854;2024-02-23T14:16:06;8.30;99.90
18225;DHT22;9237;48.590;8.854;2024-02-23T14:18:33;8.20;99.90
18225;DHT22;9237;48.590;8.854;2024-02-23T14:21:05;8.10;99.90
18225;DHT22;9237;48.590;8.854;2024-02-23T14:23:31;8.00;99.90
18225;DHT22;9237;48.590;8.854;2024-02-23T14:25:59;7.90;99.90
18225;DHT22;9237;48.590;8.854;2024-02-23T14:28:25;7.80;99.90
18225;DHT22;9237;48.590;8.854;2024-02-23T14:30:52;7.70;99.90
18225;DHT22;9237;48.590;8.854;2024-02-23T14:33:19;7.70;99.90
18225;DHT22;9237;48.590;8.854;2024-02-23T14:35:46;7.70;99.90
18225;DHT22;9237;48.590;8.854;2024-02-23T14:38:16;7.60;99.90
18225;DHT22;9237;48.590;8.854;2024-02-23T14:40:42;7.70;99.90
18225;DHT22;9237;48.590;8.854;2024-02-23T14:43:09;7.70;99.90
18225;DHT22;9237;48.590;8.854;2024-02-23T14:45:37;7.70;99.90
18225;DHT22;9237;48.590;8.854;2024-02-23T14:48:04;7.70;99.90
18225;DHT22;9237;48.590;8.854;2024-02-23T14:50:32;7.70;99.90
18225;DHT22;9237;48.590;8.854;2024-02-23T14:52:59;7.70;99.90
18225;DHT22;9237;48.590;8.854;2024-02-23T14:55:27;7.70;99.90
18225;DHT22;9237;48.590;8.854;2024-02-23T14:57:55;8.80;99.90
18225;DHT22;9237;48.590;8.854;2024-02-23T15:00:23;7.60;99.90
18225;DHT22;9237;48.590;8.854;2024-02-23T15:02:50;7.60;99.90
18225;DHT22;9237;48.590;8.854;2024-02-23T15:05:20;7.50;99.90
18225;DHT22;9237;48.590;8.854;2024-02-23T15:07:47;7.50;99.90
18225;DHT22;9237;48.590;8.854;2024-02-23T15:10:13;7.40;99.90
18225;DHT22;9237;48.590;8.854;2024-02-23T15:12:42;7.40;99.90
18225;DHT22;9237;48.590;8.854;2024-02-23T15:15:09;7.40;99.90
18225;DHT22;9237;48.590;8.854;2024-02-23T15:17:36;7.30;99.90
18225;DHT22;9237;48.590;8.854;2024-02-23T15:20:04;7.20;99.90
18225;DHT22;9237;48.590;8.854;2024-02-23T15:22:31;7.20;99.90
18225;DHT22;9237;48.590;8.854;2024-02-23T15:24:58;7.20;99.90
18225;DHT22;9237;48.590;8.854;2024-02-23T15:27:25;7.10;99.90
18225;DHT22;9237;48.590;8.854;2024-02-23T15:29:53;7.10;99.90
18225;DHT22;9237;48.590;8.854;2024-02-23T15:32:20;7.00;99.90
18225;DHT22;9237;48.590;8.854;2024-02-23T15:34:47;7.00;99.90
18225;DHT22;9237;48.590;8.854;2024-02-23T15:37:14;7.00;99.90
18225;DHT22;9237;48.590;8.854;2024-02-23T15:39:41;7.00;99.90
18225;DHT22;9237;48.590;8.854;2024-02-23T15:42:08;7.00;99.90
18225;DHT22;9237;48.590;8.854;2024-02-23T15:44:35;7.10;99.90
18225;DHT22;9237;48.590;8.854;2024-02-23T15:47:03;7.10;99.90
18225;DHT22;9237;48.590;8.854;2024-02-23T15:49:30;7.20;99.90
18225;DHT22;9237;48.590;8.854;2024-02-23T15:51:58;7.20;99.90
18225;DHT22;9237;48.590;8.854;2024-02-23T15:54:25;7.30;99.90
18225;DHT22;9237;48.590;8.854;2024-02-23T15:56:52;7.30;99.90
18225;DHT22;9237;48.590;8.854;2024-02-23T15:59:19;7.30;99.90
18225;DHT22;9237;48.590;8.854;2024-02-23T16:01:46;7.30;99.90
18225;DHT22;9237;48.590;8.854;2024-02-23T16:04:14;7.30;99.90